createdAt,value
2018-03-25T00:00:42.217Z,1005.89
2018-03-25T00:01:42.225Z,1005.87
2018-03-25T00:02:42.186Z,1005.91
2018-03-25T00:03:42.205Z,1005.86
2018-03-25T00:04:42.200Z,1005.84
2018-03-25T00:05:42.226Z,1005.87
2018-03-25T00:06:42.246Z,1005.83
2018-03-25T00:07:42.200Z,1005.81
2018-03-25T00:08:42.195Z,1005.84
2018-03-25T00:09:42.203Z,1005.84
2018-03-25T00:10:42.210Z,1005.83
2018-03-25T00:11:42.235Z,1005.85
2018-03-25T00:12:42.226Z,1005.82
2018-03-25T00:13:42.188Z,1005.84
2018-03-25T00:14:42.238Z,1005.84
2018-03-25T00:15:42.204Z,1005.85
2018-03-25T00:16:42.228Z,1005.86
2018-03-25T00:17:42.269Z,1005.84
2018-03-25T00:18:42.202Z,1005.77
2018-03-25T00:19:42.201Z,1005.8
2018-03-25T00:20:42.264Z,1005.83
2018-03-25T00:21:42.230Z,1005.83
2018-03-25T00:22:42.189Z,1005.82
2018-03-25T00:23:42.240Z,1005.84
2018-03-25T00:24:42.200Z,1005.86
2018-03-25T00:25:42.244Z,1005.86
2018-03-25T00:26:42.241Z,1005.93
2018-03-25T00:27:42.343Z,1005.91
2018-03-25T00:28:42.196Z,1005.9
2018-03-25T00:29:42.189Z,1005.93
2018-03-25T00:30:42.255Z,1005.9
2018-03-25T00:31:42.480Z,1005.9
2018-03-25T00:32:42.232Z,1005.9
2018-03-25T00:33:42.194Z,1005.92
2018-03-25T00:34:42.195Z,1005.89
2018-03-25T00:35:42.212Z,1005.92
2018-03-25T00:36:42.221Z,1005.94
2018-03-25T00:37:42.199Z,1005.97
2018-03-25T00:38:42.183Z,1005.95
2018-03-25T00:39:42.187Z,1005.92
2018-03-25T00:40:42.228Z,1005.95
2018-03-25T00:41:42.237Z,1005.94
2018-03-25T00:42:42.226Z,1005.96
2018-03-25T00:43:42.186Z,1005.94
2018-03-25T00:44:42.176Z,1006.01
2018-03-25T00:45:42.202Z,1005.94
2018-03-25T00:46:42.189Z,1005.94
2018-03-25T00:47:42.239Z,1005.95
2018-03-25T00:48:42.225Z,1005.96
2018-03-25T00:49:42.192Z,1005.96
2018-03-25T00:50:42.361Z,1005.96
2018-03-25T00:51:42.182Z,1005.94
2018-03-25T00:52:42.186Z,1005.93
2018-03-25T00:53:42.228Z,1005.94
2018-03-25T00:54:42.223Z,1005.93
2018-03-25T00:55:42.210Z,1005.97
2018-03-25T00:56:42.182Z,1005.95
2018-03-25T00:57:42.199Z,1005.96
2018-03-25T00:58:42.187Z,1005.98
2018-03-25T00:59:42.190Z,1005.95
2018-03-25T01:00:42.200Z,1005.99
2018-03-25T01:01:42.461Z,1005.96
2018-03-25T01:02:42.210Z,1005.98
2018-03-25T01:03:42.184Z,1005.96
2018-03-25T01:04:42.187Z,1005.99
2018-03-25T01:05:42.172Z,1005.98
2018-03-25T01:06:42.219Z,1005.98
2018-03-25T01:07:42.325Z,1006
2018-03-25T01:08:42.228Z,1005.98
2018-03-25T01:09:42.180Z,1006
2018-03-25T01:10:42.193Z,1005.97
2018-03-25T01:11:42.221Z,1006.01
2018-03-25T01:12:46.053Z,1006.03
2018-03-25T01:13:42.211Z,1005.99
2018-03-25T01:14:42.255Z,1006.02
2018-03-25T01:15:42.199Z,1006.04
2018-03-25T01:16:42.211Z,1006.02
2018-03-25T01:17:42.201Z,1005.99
2018-03-25T01:18:42.249Z,1006
2018-03-25T01:19:42.308Z,1005.99
2018-03-25T01:20:42.205Z,1006
2018-03-25T01:21:42.262Z,1006.06
2018-03-25T01:22:42.222Z,1006.06
2018-03-25T01:23:42.222Z,1006.02
2018-03-25T01:24:42.230Z,1006.06
2018-03-25T01:25:42.187Z,1006.08
2018-03-25T01:26:42.247Z,1006.03
2018-03-25T01:27:42.245Z,1006.06
2018-03-25T01:28:42.224Z,1006.01
2018-03-25T01:29:42.232Z,1006.05
2018-03-25T01:30:42.225Z,1006.07
2018-03-25T01:31:42.233Z,1006.04
2018-03-25T01:32:42.224Z,1006.03
2018-03-25T01:33:42.188Z,1006.07
2018-03-25T01:34:42.190Z,1006.06
2018-03-25T01:35:42.201Z,1006.07
2018-03-25T01:36:42.229Z,1006.05
2018-03-25T01:37:42.219Z,1006.03
2018-03-25T01:38:42.226Z,1006.04
2018-03-25T01:39:42.229Z,1006.06
2018-03-25T01:40:42.216Z,1006.02
2018-03-25T01:41:42.220Z,1006.05
2018-03-25T01:42:42.189Z,1006.03
2018-03-25T01:43:42.208Z,1006
2018-03-25T01:44:42.249Z,1006
2018-03-25T01:45:42.215Z,1006.06
2018-03-25T01:46:42.218Z,1006.03
2018-03-25T01:47:42.191Z,1006.05
2018-03-25T01:48:42.237Z,1006.04
2018-03-25T01:49:42.307Z,1006.02
2018-03-25T01:50:42.201Z,1006.06
2018-03-25T01:51:42.214Z,1006.05
2018-03-25T01:52:42.216Z,1006.06
2018-03-25T01:53:42.201Z,1006.08
2018-03-25T01:54:42.282Z,1006.08
2018-03-25T01:55:42.332Z,1006.1
2018-03-25T01:56:42.227Z,1006.1
2018-03-25T01:57:42.190Z,1006.1
2018-03-25T01:58:42.207Z,1006.13
2018-03-25T01:59:42.196Z,1006.13
2018-03-25T02:00:42.180Z,1006.07
2018-03-25T02:01:42.210Z,1006.12
2018-03-25T02:02:42.220Z,1006.07
2018-03-25T02:03:42.182Z,1006.06
2018-03-25T02:04:42.172Z,1006.06
2018-03-25T02:05:42.190Z,1006.06
2018-03-25T02:06:42.177Z,1006.02
2018-03-25T02:07:42.202Z,1006.07
2018-03-25T02:08:42.214Z,1006.11
2018-03-25T02:09:42.221Z,1006.06
2018-03-25T02:10:42.174Z,1006.05
2018-03-25T02:11:42.197Z,1006.05
2018-03-25T02:12:42.224Z,1006.03
2018-03-25T02:13:42.211Z,1006.05
2018-03-25T02:14:42.197Z,1006.01
2018-03-25T02:15:42.221Z,1006
2018-03-25T02:16:42.223Z,1005.99
2018-03-25T02:17:42.214Z,1006.02
2018-03-25T02:18:42.262Z,1005.99
2018-03-25T02:19:42.209Z,1005.99
2018-03-25T02:20:42.255Z,1005.97
2018-03-25T02:21:42.176Z,1005.98
2018-03-25T02:22:42.225Z,1005.98
2018-03-25T02:23:42.209Z,1005.96
2018-03-25T02:24:42.204Z,1005.97
2018-03-25T02:25:42.212Z,1005.98
2018-03-25T02:26:42.223Z,1005.96
2018-03-25T02:27:42.209Z,1006
2018-03-25T02:28:42.223Z,1006
2018-03-25T02:29:42.184Z,1006.02
2018-03-25T02:30:42.189Z,1006.01
2018-03-25T02:31:42.205Z,1006.02
2018-03-25T02:32:42.453Z,1006.03
2018-03-25T02:33:42.237Z,1006.05
2018-03-25T02:34:42.209Z,1006.04
2018-03-25T02:35:42.181Z,1006.06
2018-03-25T02:36:42.206Z,1006.03
2018-03-25T02:37:42.189Z,1006.05
2018-03-25T02:38:42.210Z,1006.07
2018-03-25T02:39:42.171Z,1006.07
2018-03-25T02:40:42.210Z,1006.07
2018-03-25T02:41:42.196Z,1006.11
2018-03-25T02:42:42.204Z,1006.1
2018-03-25T02:43:42.256Z,1006.08
2018-03-25T02:44:42.197Z,1006.07
2018-03-25T02:45:42.195Z,1006.09
2018-03-25T02:46:42.165Z,1006.12
2018-03-25T02:47:42.204Z,1006.12
2018-03-25T02:48:42.257Z,1006.13
2018-03-25T02:49:42.230Z,1006.13
2018-03-25T02:50:42.221Z,1006.17
2018-03-25T02:51:42.262Z,1006.17
2018-03-25T02:52:42.163Z,1006.16
2018-03-25T02:53:42.253Z,1006.18
2018-03-25T02:54:42.323Z,1006.18
2018-03-25T02:55:42.243Z,1006.14
2018-03-25T02:56:42.204Z,1006.2
2018-03-25T02:57:42.166Z,1006.2
2018-03-25T02:58:42.241Z,1006.17
2018-03-25T02:59:42.205Z,1006.22
2018-03-25T03:00:42.201Z,1006.26
2018-03-25T03:01:42.211Z,1006.25
2018-03-25T03:02:42.216Z,1006.26
2018-03-25T03:03:42.185Z,1006.23
2018-03-25T03:04:42.222Z,1006.25
2018-03-25T03:05:42.198Z,1006.24
2018-03-25T03:06:42.183Z,1006.23
2018-03-25T03:07:42.149Z,1006.24
2018-03-25T03:08:42.193Z,1006.24
2018-03-25T03:09:42.181Z,1006.16
2018-03-25T03:10:42.220Z,1006.23
2018-03-25T03:11:42.187Z,1006.2
2018-03-25T03:12:42.199Z,1006.21
2018-03-25T03:13:42.174Z,1006.22
2018-03-25T03:14:42.193Z,1006.23
2018-03-25T03:15:42.173Z,1006.24
2018-03-25T03:16:42.200Z,1006.2
2018-03-25T03:17:42.174Z,1006.2
2018-03-25T03:18:42.195Z,1006.24
2018-03-25T03:19:42.178Z,1006.31
2018-03-25T03:20:42.212Z,1006.26
2018-03-25T03:21:42.195Z,1006.24
2018-03-25T03:22:42.231Z,1006.31
2018-03-25T03:23:42.202Z,1006.3
2018-03-25T03:24:42.217Z,1006.3
2018-03-25T03:25:42.154Z,1006.31
2018-03-25T03:26:42.182Z,1006.29
2018-03-25T03:27:42.183Z,1006.34
2018-03-25T03:28:42.269Z,1006.36
2018-03-25T03:29:42.160Z,1006.36
2018-03-25T03:30:42.209Z,1006.38
2018-03-25T03:31:42.191Z,1006.38
2018-03-25T03:32:42.185Z,1006.36
2018-03-25T03:33:42.179Z,1006.4
2018-03-25T03:34:42.196Z,1006.41
2018-03-25T03:35:42.181Z,1006.43
2018-03-25T03:36:42.182Z,1006.38
2018-03-25T03:37:42.143Z,1006.41
2018-03-25T03:38:42.212Z,1006.38
2018-03-25T03:39:42.142Z,1006.42
2018-03-25T03:40:42.146Z,1006.39
2018-03-25T03:41:42.161Z,1006.37
2018-03-25T03:42:42.147Z,1006.44
2018-03-25T03:43:42.197Z,1006.4
2018-03-25T03:44:42.183Z,1006.4
2018-03-25T03:45:42.150Z,1006.38
2018-03-25T03:46:42.163Z,1006.41
2018-03-25T03:47:42.206Z,1006.45
2018-03-25T03:48:42.178Z,1006.41
2018-03-25T03:49:42.184Z,1006.42
2018-03-25T03:50:42.169Z,1006.41
2018-03-25T03:51:42.166Z,1006.43
2018-03-25T03:52:42.137Z,1006.38
2018-03-25T03:53:42.257Z,1006.42
2018-03-25T03:54:42.179Z,1006.41
2018-03-25T03:55:42.262Z,1006.42
2018-03-25T03:56:42.262Z,1006.49
2018-03-25T03:57:42.189Z,1006.46
2018-03-25T03:58:42.169Z,1006.47
2018-03-25T03:59:42.167Z,1006.49
2018-03-25T04:00:42.140Z,1006.47
2018-03-25T04:01:42.111Z,1006.49
2018-03-25T04:02:42.143Z,1006.51
2018-03-25T04:03:42.165Z,1006.5
2018-03-25T04:04:42.229Z,1006.52
2018-03-25T04:05:42.174Z,1006.5
2018-03-25T04:06:42.180Z,1006.56
2018-03-25T04:07:42.168Z,1006.55
2018-03-25T04:08:42.149Z,1006.57
2018-03-25T04:09:42.199Z,1006.58
2018-03-25T04:10:42.186Z,1006.65
2018-03-25T04:11:42.163Z,1006.64
2018-03-25T04:12:42.173Z,1006.63
2018-03-25T04:13:42.179Z,1006.64
2018-03-25T04:14:42.180Z,1006.63
2018-03-25T04:15:42.173Z,1006.65
2018-03-25T04:16:42.162Z,1006.7
2018-03-25T04:17:42.147Z,1006.67
2018-03-25T04:18:42.158Z,1006.69
2018-03-25T04:19:42.191Z,1006.69
2018-03-25T04:20:42.315Z,1006.69
2018-03-25T04:21:42.190Z,1006.72
2018-03-25T04:22:42.149Z,1006.72
2018-03-25T04:23:42.172Z,1006.71
2018-03-25T04:24:42.232Z,1006.73
2018-03-25T04:25:42.191Z,1006.65
2018-03-25T04:26:42.163Z,1006.69
2018-03-25T04:27:42.172Z,1006.66
2018-03-25T04:28:42.161Z,1006.75
2018-03-25T04:29:42.152Z,1006.74
2018-03-25T04:30:42.180Z,1006.7
2018-03-25T04:31:42.168Z,1006.71
2018-03-25T04:32:42.167Z,1006.76
2018-03-25T04:33:42.150Z,1006.76
2018-03-25T04:34:42.163Z,1006.76
2018-03-25T04:35:42.153Z,1006.79
2018-03-25T04:36:42.193Z,1006.78
2018-03-25T04:37:42.154Z,1006.77
2018-03-25T04:38:42.155Z,1006.78
2018-03-25T04:39:42.166Z,1006.82
2018-03-25T04:40:42.139Z,1006.83
2018-03-25T04:41:42.152Z,1006.84
2018-03-25T04:42:42.131Z,1006.86
2018-03-25T04:43:42.153Z,1006.85
2018-03-25T04:44:42.152Z,1006.93
2018-03-25T04:45:42.152Z,1006.92
2018-03-25T04:46:42.149Z,1006.9
2018-03-25T04:47:42.165Z,1006.96
2018-03-25T04:48:42.176Z,1006.97
2018-03-25T04:49:42.176Z,1006.95
2018-03-25T04:50:42.158Z,1006.92
2018-03-25T04:51:42.148Z,1006.93
2018-03-25T04:52:42.164Z,1006.97
2018-03-25T04:53:42.124Z,1007
2018-03-25T04:54:42.176Z,1006.97
2018-03-25T04:55:42.223Z,1006.99
2018-03-25T04:56:42.136Z,1006.96
2018-03-25T04:57:42.130Z,1006.99
2018-03-25T04:58:42.176Z,1007
2018-03-25T04:59:42.136Z,1006.99
2018-03-25T05:00:42.144Z,1007
2018-03-25T05:01:42.159Z,1007.02
2018-03-25T05:02:42.194Z,1007
2018-03-25T05:03:42.173Z,1007.01
2018-03-25T05:04:42.166Z,1007.02
2018-03-25T05:05:42.146Z,1007.03
2018-03-25T05:06:42.157Z,1007.03
2018-03-25T05:07:42.166Z,1007.02
2018-03-25T05:08:42.132Z,1007.01
2018-03-25T05:09:42.152Z,1007.04
2018-03-25T05:10:42.143Z,1007.04
2018-03-25T05:11:42.139Z,1007.08
2018-03-25T05:12:42.149Z,1007.09
2018-03-25T05:13:42.162Z,1007.11
2018-03-25T05:14:42.143Z,1007.14
2018-03-25T05:15:42.172Z,1007.1
2018-03-25T05:16:42.133Z,1007.15
2018-03-25T05:17:42.160Z,1007.18
2018-03-25T05:18:42.149Z,1007.18
2018-03-25T05:19:42.134Z,1007.17
2018-03-25T05:20:42.156Z,1007.18
2018-03-25T05:21:42.155Z,1007.21
2018-03-25T05:22:42.160Z,1007.25
2018-03-25T05:23:42.124Z,1007.25
2018-03-25T05:24:42.165Z,1007.23
2018-03-25T05:25:42.165Z,1007.23
2018-03-25T05:26:42.188Z,1007.27
2018-03-25T05:27:42.136Z,1007.25
2018-03-25T05:28:42.136Z,1007.25
2018-03-25T05:29:42.121Z,1007.31
2018-03-25T05:30:42.127Z,1007.29
2018-03-25T05:31:42.136Z,1007.32
2018-03-25T05:32:42.145Z,1007.32
2018-03-25T05:33:42.142Z,1007.32
2018-03-25T05:34:42.166Z,1007.28
2018-03-25T05:35:42.133Z,1007.33
2018-03-25T05:36:42.132Z,1007.31
2018-03-25T05:37:42.129Z,1007.36
2018-03-25T05:38:42.112Z,1007.33
2018-03-25T05:39:42.145Z,1007.37
2018-03-25T05:40:42.169Z,1007.35
2018-03-25T05:41:42.127Z,1007.37
2018-03-25T05:42:42.126Z,1007.39
2018-03-25T05:43:42.128Z,1007.38
2018-03-25T05:44:42.120Z,1007.44
2018-03-25T05:45:42.138Z,1007.46
2018-03-25T05:46:42.136Z,1007.45
2018-03-25T05:47:42.113Z,1007.49
2018-03-25T05:48:42.130Z,1007.51
2018-03-25T05:49:42.146Z,1007.52
2018-03-25T05:50:42.124Z,1007.51
2018-03-25T05:51:42.152Z,1007.53
2018-03-25T05:52:42.157Z,1007.56
2018-03-25T05:53:42.117Z,1007.55
2018-03-25T05:54:42.160Z,1007.53
2018-03-25T05:55:42.094Z,1007.57
2018-03-25T05:56:42.239Z,1007.59
2018-03-25T05:57:42.256Z,1007.6
2018-03-25T05:58:42.073Z,1007.63
2018-03-25T05:59:42.143Z,1007.65
2018-03-25T06:00:42.109Z,1007.61
2018-03-25T06:01:42.129Z,1007.66
2018-03-25T06:02:42.112Z,1007.61
2018-03-25T06:03:42.157Z,1007.68
2018-03-25T06:04:42.202Z,1007.68
2018-03-25T06:05:42.129Z,1007.72
2018-03-25T06:06:42.110Z,1007.71
2018-03-25T06:07:42.125Z,1007.72
2018-03-25T06:08:42.119Z,1007.76
2018-03-25T06:09:42.146Z,1007.79
2018-03-25T06:10:42.145Z,1007.79
2018-03-25T06:11:42.154Z,1007.78
2018-03-25T06:12:42.155Z,1007.83
2018-03-25T06:13:42.136Z,1007.83
2018-03-25T06:14:42.100Z,1007.82
2018-03-25T06:15:42.123Z,1007.85
2018-03-25T06:16:42.151Z,1007.81
2018-03-25T06:17:42.089Z,1007.86
2018-03-25T06:18:42.136Z,1007.88
2018-03-25T06:19:42.166Z,1007.89
2018-03-25T06:20:42.148Z,1007.87
2018-03-25T06:21:42.129Z,1007.89
2018-03-25T06:22:42.118Z,1007.91
2018-03-25T06:23:42.126Z,1007.94
2018-03-25T06:24:42.110Z,1007.93
2018-03-25T06:25:42.093Z,1007.98
2018-03-25T06:26:42.145Z,1007.97
2018-03-25T06:27:42.096Z,1007.98
2018-03-25T06:28:42.129Z,1007.99
2018-03-25T06:29:42.166Z,1008.03
2018-03-25T06:30:42.086Z,1008.05
2018-03-25T06:31:42.127Z,1008.02
2018-03-25T06:32:42.138Z,1008.05
2018-03-25T06:33:42.092Z,1008.08
2018-03-25T06:34:42.118Z,1008.07
2018-03-25T06:35:42.124Z,1008.15
2018-03-25T06:36:42.109Z,1008.12
2018-03-25T06:37:42.120Z,1008.16
2018-03-25T06:38:42.116Z,1008.17
2018-03-25T06:39:42.155Z,1008.21
2018-03-25T06:40:42.148Z,1008.22
2018-03-25T06:41:42.105Z,1008.23
2018-03-25T06:42:42.077Z,1008.22
2018-03-25T06:43:42.116Z,1008.24
2018-03-25T06:44:42.161Z,1008.27
2018-03-25T06:45:42.100Z,1008.22
2018-03-25T06:46:42.112Z,1008.22
2018-03-25T06:47:42.129Z,1008.24
2018-03-25T06:48:42.086Z,1008.24
2018-03-25T06:49:42.110Z,1008.25
2018-03-25T06:50:42.095Z,1008.24
2018-03-25T06:51:42.133Z,1008.22
2018-03-25T06:52:42.133Z,1008.24
2018-03-25T06:53:42.107Z,1008.26
2018-03-25T06:54:42.115Z,1008.24
2018-03-25T06:55:42.119Z,1008.25
2018-03-25T06:56:42.124Z,1008.25
2018-03-25T06:57:42.088Z,1008.27
2018-03-25T06:58:42.082Z,1008.26
2018-03-25T06:59:42.167Z,1008.25
2018-03-25T07:00:42.116Z,1008.26
2018-03-25T07:01:42.072Z,1008.29
2018-03-25T07:02:42.138Z,1008.26
2018-03-25T07:03:42.117Z,1008.29
2018-03-25T07:04:42.125Z,1008.28
2018-03-25T07:05:42.134Z,1008.33
2018-03-25T07:06:42.084Z,1008.31
2018-03-25T07:07:42.099Z,1008.28
2018-03-25T07:08:42.207Z,1008.3
2018-03-25T07:09:42.142Z,1008.29
2018-03-25T07:10:42.076Z,1008.32
2018-03-25T07:11:42.135Z,1008.31
2018-03-25T07:12:42.101Z,1008.32
2018-03-25T07:13:42.112Z,1008.33
2018-03-25T07:14:42.165Z,1008.35
2018-03-25T07:15:42.138Z,1008.35
2018-03-25T07:16:42.124Z,1008.34
2018-03-25T07:17:42.179Z,1008.34
2018-03-25T07:18:42.093Z,1008.38
2018-03-25T07:19:42.070Z,1008.37
2018-03-25T07:20:42.112Z,1008.37
2018-03-25T07:21:42.111Z,1008.37
2018-03-25T07:22:42.114Z,1008.39
2018-03-25T07:23:42.097Z,1008.38
2018-03-25T07:24:42.095Z,1008.35
2018-03-25T07:25:42.112Z,1008.38
2018-03-25T07:26:42.086Z,1008.45
2018-03-25T07:27:42.125Z,1008.42
2018-03-25T07:28:42.105Z,1008.44
2018-03-25T07:29:42.109Z,1008.48
2018-03-25T07:30:42.154Z,1008.46
2018-03-25T07:31:42.118Z,1008.52
2018-03-25T07:32:42.114Z,1008.5
2018-03-25T07:33:42.104Z,1008.54
2018-03-25T07:34:42.154Z,1008.52
2018-03-25T07:35:42.085Z,1008.5
2018-03-25T07:36:42.124Z,1008.54
2018-03-25T07:37:42.296Z,1008.53
2018-03-25T07:38:42.099Z,1008.55
2018-03-25T07:39:42.061Z,1008.56
2018-03-25T07:40:42.100Z,1008.59
2018-03-25T07:41:42.124Z,1008.57
2018-03-25T07:42:42.119Z,1008.67
2018-03-25T07:43:42.093Z,1008.65
2018-03-25T07:44:42.105Z,1008.66
2018-03-25T07:45:42.098Z,1008.66
2018-03-25T07:46:42.183Z,1008.68
2018-03-25T07:47:42.088Z,1008.65
2018-03-25T07:48:42.122Z,1008.7
2018-03-25T07:49:42.096Z,1008.69
2018-03-25T07:50:42.078Z,1008.69
2018-03-25T07:51:42.096Z,1008.62
2018-03-25T07:52:42.068Z,1008.69
2018-03-25T07:53:42.099Z,1008.67
2018-03-25T07:54:42.099Z,1008.68
2018-03-25T07:55:42.095Z,1008.72
2018-03-25T07:56:42.100Z,1008.72
2018-03-25T07:57:42.161Z,1008.77
2018-03-25T07:58:42.188Z,1008.75
2018-03-25T07:59:42.073Z,1008.76
2018-03-25T08:00:42.113Z,1008.77
2018-03-25T08:01:42.126Z,1008.78
2018-03-25T08:02:42.088Z,1008.78
2018-03-25T08:03:42.060Z,1008.82
2018-03-25T08:04:42.109Z,1008.82
2018-03-25T08:05:42.072Z,1008.84
2018-03-25T08:06:42.089Z,1008.81
2018-03-25T08:07:42.098Z,1008.85
2018-03-25T08:08:42.081Z,1008.86
2018-03-25T08:09:42.100Z,1008.82
2018-03-25T08:10:42.053Z,1008.9
2018-03-25T08:11:42.070Z,1008.85
2018-03-25T08:12:42.111Z,1008.87
2018-03-25T08:13:42.128Z,1008.88
2018-03-25T08:14:42.068Z,1008.89
2018-03-25T08:15:42.047Z,1008.88
2018-03-25T08:16:42.087Z,1008.86
2018-03-25T08:17:42.090Z,1008.89
2018-03-25T08:18:42.087Z,1008.91
2018-03-25T08:19:42.099Z,1008.91
2018-03-25T08:20:42.171Z,1008.94
2018-03-25T08:21:42.640Z,1008.92
2018-03-25T08:22:42.100Z,1008.94
2018-03-25T08:23:42.154Z,1008.91
2018-03-25T08:24:42.092Z,1008.94
2018-03-25T08:25:42.055Z,1008.94
2018-03-25T08:26:42.083Z,1008.94
2018-03-25T08:27:42.045Z,1008.96
2018-03-25T08:28:42.080Z,1008.93
2018-03-25T08:29:42.116Z,1008.97
2018-03-25T08:30:42.078Z,1008.97
2018-03-25T08:31:42.111Z,1009
2018-03-25T08:32:42.098Z,1008.94
2018-03-25T08:33:42.058Z,1009
2018-03-25T08:34:42.099Z,1009
2018-03-25T08:35:42.142Z,1009
2018-03-25T08:36:42.074Z,1008.98
2018-03-25T08:37:42.050Z,1009.02
2018-03-25T08:38:42.165Z,1009.01
2018-03-25T08:39:42.082Z,1008.98
2018-03-25T08:40:42.073Z,1009.03
2018-03-25T08:41:42.092Z,1009.01
2018-03-25T08:42:42.052Z,1009.02
2018-03-25T08:43:42.061Z,1009
2018-03-25T08:44:42.086Z,1009.04
2018-03-25T08:45:42.173Z,1009.01
2018-03-25T08:46:42.080Z,1009.05
2018-03-25T08:47:42.100Z,1009.04
2018-03-25T08:48:42.048Z,1009.09
2018-03-25T08:49:42.046Z,1009.13
2018-03-25T08:50:42.067Z,1009.11
2018-03-25T08:51:42.085Z,1009.13
2018-03-25T08:52:42.044Z,1009.14
2018-03-25T08:53:42.090Z,1009.16
2018-03-25T08:54:42.041Z,1009.16
2018-03-25T08:55:42.156Z,1009.18
2018-03-25T08:56:42.083Z,1009.23
2018-03-25T08:57:42.137Z,1009.22
2018-03-25T08:58:42.064Z,1009.24
2018-03-25T08:59:42.078Z,1009.26
2018-03-25T09:00:42.088Z,1009.22
2018-03-25T09:01:42.144Z,1009.23
2018-03-25T09:02:42.080Z,1009.24
2018-03-25T09:03:42.067Z,1009.19
2018-03-25T09:04:42.095Z,1009.14
2018-03-25T09:05:42.110Z,1009.14
2018-03-25T09:06:42.112Z,1009.11
2018-03-25T09:07:42.090Z,1009.14
2018-03-25T09:08:42.087Z,1009.14
2018-03-25T09:09:42.073Z,1009.1
2018-03-25T09:10:42.032Z,1009.13
2018-03-25T09:11:42.121Z,1009.15
2018-03-25T09:12:42.029Z,1009.15
2018-03-25T09:13:42.088Z,1009.1
2018-03-25T09:14:42.104Z,1009.14
2018-03-25T09:15:42.081Z,1009.11
2018-03-25T09:16:42.064Z,1009.15
2018-03-25T09:17:42.112Z,1009.15
2018-03-25T09:18:42.085Z,1009.13
2018-03-25T09:19:42.067Z,1009.16
2018-03-25T09:20:42.106Z,1009.16
2018-03-25T09:21:42.108Z,1009.16
2018-03-25T09:22:42.042Z,1009.11
2018-03-25T09:23:42.129Z,1009.16
2018-03-25T09:24:42.075Z,1009.16
2018-03-25T09:25:42.065Z,1009.15
2018-03-25T09:26:42.048Z,1009.18
2018-03-25T09:27:42.082Z,1009.18
2018-03-25T09:28:42.087Z,1009.22
2018-03-25T09:29:42.057Z,1009.23
2018-03-25T09:30:42.068Z,1009.2
2018-03-25T09:31:42.067Z,1009.23
2018-03-25T09:32:42.051Z,1009.23
2018-03-25T09:33:42.067Z,1009.26
2018-03-25T09:34:42.061Z,1009.24
2018-03-25T09:35:42.065Z,1009.27
2018-03-25T09:36:42.023Z,1009.24
2018-03-25T09:37:42.044Z,1009.24
2018-03-25T09:38:42.051Z,1009.26
2018-03-25T09:39:42.027Z,1009.22
2018-03-25T09:40:42.027Z,1009.25
2018-03-25T09:41:42.048Z,1009.24
2018-03-25T09:42:42.043Z,1009.23
2018-03-25T09:43:42.027Z,1009.25
2018-03-25T09:44:42.057Z,1009.25
2018-03-25T09:45:42.051Z,1009.25
2018-03-25T09:46:42.020Z,1009.26
2018-03-25T09:47:42.040Z,1009.24
2018-03-25T09:48:42.078Z,1009.25
2018-03-25T09:49:42.054Z,1009.23
2018-03-25T09:50:42.039Z,1009.21
2018-03-25T09:51:42.053Z,1009.25
2018-03-25T09:52:42.107Z,1009.26
2018-03-25T09:53:42.050Z,1009.27
2018-03-25T09:54:42.062Z,1009.29
2018-03-25T09:55:42.067Z,1009.28
2018-03-25T09:56:42.053Z,1009.27
2018-03-25T09:57:42.014Z,1009.27
2018-03-25T09:58:42.294Z,1009.31
2018-03-25T09:59:42.176Z,1009.28
2018-03-25T10:00:42.057Z,1009.28
2018-03-25T10:01:42.096Z,1009.23
2018-03-25T10:02:42.105Z,1009.28
2018-03-25T10:03:42.021Z,1009.28
2018-03-25T10:04:42.386Z,1009.28
2018-03-25T10:05:42.055Z,1009.33
2018-03-25T10:06:42.086Z,1009.32
2018-03-25T10:07:42.024Z,1009.34
2018-03-25T10:08:42.046Z,1009.32
2018-03-25T10:09:42.077Z,1009.29
2018-03-25T10:10:42.012Z,1009.33
2018-03-25T10:11:42.080Z,1009.33
2018-03-25T10:12:42.047Z,1009.28
2018-03-25T10:13:42.061Z,1009.28
2018-03-25T10:14:42.144Z,1009.31
2018-03-25T10:15:42.063Z,1009.32
2018-03-25T10:16:42.094Z,1009.3
2018-03-25T10:17:42.044Z,1009.28
2018-03-25T10:18:42.111Z,1009.29
2018-03-25T10:19:00.544Z,1009.23
2018-03-25T10:19:46.837Z,1009.24
2018-03-25T10:20:46.828Z,1009.29
2018-03-25T10:21:46.841Z,1009.26
2018-03-25T10:22:46.816Z,1009.27
2018-03-25T10:23:46.828Z,1009.27
2018-03-25T10:24:46.848Z,1009.25
2018-03-25T10:25:46.860Z,1009.25
2018-03-25T10:26:46.868Z,1009.25
2018-03-25T10:27:46.969Z,1009.24
2018-03-25T10:28:46.817Z,1009.24
2018-03-25T10:29:46.849Z,1009.2
2018-03-25T10:30:46.819Z,1009.24
2018-03-25T10:31:46.812Z,1009.2
2018-03-25T10:32:18.716Z,1009.18
2018-03-25T10:33:18.817Z,1009.2
2018-03-25T10:34:18.776Z,1009.2
2018-03-25T10:35:18.745Z,1009.18
2018-03-25T10:36:18.825Z,1009.19
2018-03-25T10:37:18.773Z,1009.17
2018-03-25T10:38:18.793Z,1009.18
2018-03-25T10:39:18.777Z,1009.14
2018-03-25T10:40:18.777Z,1009.11
2018-03-25T10:40:59.059Z,1009.14
2018-03-25T10:41:59.038Z,1009.1
2018-03-25T10:42:59.019Z,1009.09
2018-03-25T10:43:59.028Z,1009.12
2018-03-25T10:44:59.052Z,1009.08
2018-03-25T10:45:59.029Z,1009.11
2018-03-25T10:46:59.061Z,1009.12
2018-03-25T10:47:59.021Z,1009.09
2018-03-25T10:48:59.027Z,1009.11
2018-03-25T10:49:59.005Z,1009.14
2018-03-25T10:50:59.036Z,1009.14
2018-03-25T10:51:59.031Z,1009.15
2018-03-25T10:52:59.047Z,1009.13
2018-03-25T10:53:59.045Z,1009.14
2018-03-25T10:54:59.043Z,1009.19
2018-03-25T10:55:59.068Z,1009.15
2018-03-25T10:56:59.055Z,1009.14
2018-03-25T10:57:59.059Z,1009.16
2018-03-25T10:58:59.042Z,1009.16
2018-03-25T10:59:59.065Z,1009.16
2018-03-25T11:00:59.050Z,1009.18
2018-03-25T11:01:59.148Z,1009.2
2018-03-25T11:02:59.181Z,1009.18
2018-03-25T11:03:59.079Z,1009.2
2018-03-25T11:04:59.082Z,1009.2
2018-03-25T11:05:59.113Z,1009.24
2018-03-25T11:10:24.552Z,1009.24
2018-03-25T11:11:24.578Z,1009.22
2018-03-25T11:12:03.212Z,1009.2
2018-03-25T11:12:41.152Z,1009.2
2018-03-25T11:13:41.205Z,1009.23
2018-03-25T11:14:41.216Z,1009.16
2018-03-25T11:15:41.236Z,1009.18
2018-03-25T11:16:41.153Z,1009.19
2018-03-25T11:17:41.181Z,1009.17
2018-03-25T11:18:41.262Z,1009.21
2018-03-25T11:19:41.193Z,1009.18
2018-03-25T11:20:41.223Z,1009.15
2018-03-25T11:21:41.157Z,1009.16
2018-03-25T11:22:41.186Z,1009.2
2018-03-25T11:23:41.192Z,1009.17
2018-03-25T11:24:41.331Z,1009.19
2018-03-25T11:25:41.133Z,1009.19
2018-03-25T11:26:41.193Z,1009.17
2018-03-25T11:27:41.241Z,1009.18
2018-03-25T11:28:41.132Z,1009.15
2018-03-25T11:29:41.162Z,1009.18
2018-03-25T11:30:41.142Z,1009.15
2018-03-25T11:31:41.146Z,1009.13
2018-03-25T11:32:41.154Z,1009.16
2018-03-25T11:33:41.128Z,1009.13
2018-03-25T11:34:41.128Z,1009.16
2018-03-25T11:35:41.120Z,1009.14
2018-03-25T11:36:41.210Z,1009.12
2018-03-25T11:37:41.145Z,1009.11
2018-03-25T11:38:41.134Z,1009.14
2018-03-25T11:39:41.133Z,1009.06
2018-03-25T11:40:41.119Z,1009.13
2018-03-25T11:41:41.120Z,1009.1
2018-03-25T11:42:41.254Z,1009.1
2018-03-25T11:43:41.257Z,1009.12
2018-03-25T11:44:41.083Z,1009.11
2018-03-25T11:45:41.111Z,1009.13
2018-03-25T11:46:41.147Z,1009.1
2018-03-25T11:47:41.124Z,1009.12
2018-03-25T11:48:41.117Z,1009.16
2018-03-25T11:49:41.145Z,1009.11
2018-03-25T11:50:41.124Z,1009.11
2018-03-25T11:51:41.229Z,1009.12
2018-03-25T11:52:41.153Z,1009.1
2018-03-25T11:53:41.132Z,1009.11
2018-03-25T11:54:41.251Z,1009.08
2018-03-25T11:55:41.148Z,1009.07
2018-03-25T11:56:41.107Z,1009.1
2018-03-25T11:57:41.186Z,1009.1
2018-03-25T11:58:41.141Z,1009.14
2018-03-25T11:59:41.151Z,1009.11
2018-03-25T12:00:41.134Z,1009.13
2018-03-25T12:01:41.114Z,1009.1
2018-03-25T12:02:41.115Z,1009.09
2018-03-25T12:03:41.141Z,1009.1
2018-03-25T12:04:41.153Z,1009.1
2018-03-25T12:05:41.139Z,1009.07
2018-03-25T12:06:41.147Z,1009.08
2018-03-25T12:07:41.430Z,1009.08
2018-03-25T12:08:41.127Z,1009
2018-03-25T12:09:41.152Z,1009.06
2018-03-25T12:10:41.108Z,1009.04